createdAt,value
2023-02-11T00:01:31.249Z,0.30
2023-02-11T00:03:59.806Z,0.10
2023-02-11T00:06:29.511Z,0.20
2023-02-11T00:08:56.995Z,0.60
2023-02-11T00:11:26.520Z,0.40
2023-02-11T00:13:53.477Z,0.20
2023-02-11T00:16:21.345Z,0.20
2023-02-11T00:18:50.242Z,0.20
2023-02-11T00:21:24.453Z,0.20
2023-02-11T00:23:52.156Z,0.20
2023-02-11T00:26:25.691Z,0.20
2023-02-11T00:28:53.366Z,0.20
2023-02-11T00:31:23.034Z,0.30
2023-02-11T00:33:50.348Z,0.50
2023-02-11T00:36:24.544Z,0.40
2023-02-11T00:38:53.966Z,0.50
2023-02-11T00:41:22.188Z,0.40
2023-02-11T00:43:49.766Z,0.20
2023-02-11T00:46:19.820Z,0.30
2023-02-11T00:48:46.934Z,0.20
2023-02-11T00:51:13.913Z,0.20
2023-02-11T00:53:41.074Z,0.20
2023-02-11T00:56:08.827Z,0.30
2023-02-11T00:58:37.208Z,0.40
2023-02-11T01:01:04.799Z,0.60
2023-02-11T01:03:32.018Z,0.60
2023-02-11T01:05:58.914Z,0.70
2023-02-11T01:08:29.216Z,0.70
2023-02-11T01:11:02.497Z,0.80
2023-02-11T01:13:32.792Z,0.70
2023-02-11T01:16:00.217Z,0.60
2023-02-11T01:18:27.953Z,0.80
2023-02-11T01:20:55.366Z,0.90
2023-02-11T01:23:22.454Z,0.70
2023-02-11T01:25:50.656Z,0.80
2023-02-11T01:28:20.768Z,0.80
2023-02-11T01:30:48.389Z,0.70
2023-02-11T01:33:15.574Z,0.80
2023-02-11T01:35:43.315Z,0.80
2023-02-11T01:38:18.474Z,0.70
2023-02-11T01:40:58.635Z,0.70
2023-02-11T01:43:28.329Z,0.80
2023-02-11T01:46:31.066Z,0.80
2023-02-11T01:49:06.509Z,0.90
2023-02-11T01:51:42.253Z,0.70
2023-02-11T01:54:31.090Z,0.80
2023-02-11T01:57:18.827Z,0.70
2023-02-11T01:59:58.192Z,0.60
2023-02-11T02:02:39.861Z,0.60
2023-02-11T02:05:30.968Z,0.60
2023-02-11T02:08:19.577Z,0.80
2023-02-11T02:10:49.694Z,0.80
2023-02-11T02:13:17.380Z,0.80
2023-02-11T02:15:55.461Z,0.70
2023-02-11T02:19:00.946Z,0.70
2023-02-11T02:21:49.338Z,0.60
2023-02-11T02:24:36.476Z,0.70
2023-02-11T02:28:07.252Z,0.80
2023-02-11T02:31:03.562Z,0.80
2023-02-11T02:33:56.301Z,1.10
2023-02-11T02:36:41.821Z,1.00
2023-02-11T02:39:27.084Z,1.10
2023-02-11T02:41:56.696Z,1.10
2023-02-11T02:44:24.234Z,1.00
2023-02-11T02:46:51.624Z,1.00
2023-02-11T02:49:18.677Z,1.00
2023-02-11T02:52:30.505Z,1.00
2023-02-11T02:55:32.505Z,1.00
2023-02-11T02:58:14.796Z,1.10
2023-02-11T03:01:20.499Z,1.00
2023-02-11T03:03:53.385Z,1.10
2023-02-11T03:07:01.966Z,1.00
2023-02-11T03:09:40.866Z,1.00
2023-02-11T03:12:08.895Z,1.00
2023-02-11T03:14:36.836Z,1.10
2023-02-11T03:17:06.324Z,1.00
2023-02-11T03:19:46.666Z,1.00
2023-02-11T03:22:42.523Z,1.10
2023-02-11T03:25:09.988Z,1.30
2023-02-11T03:28:05.822Z,1.20
2023-02-11T03:30:45.767Z,1.20
2023-02-11T03:33:57.838Z,1.20
2023-02-11T03:36:33.808Z,1.10
2023-02-11T03:39:03.578Z,1.10
2023-02-11T03:41:31.480Z,1.10
2023-02-11T03:43:59.770Z,1.20
2023-02-11T03:46:35.800Z,1.00
2023-02-11T03:49:12.186Z,0.90
2023-02-11T03:51:40.411Z,1.00
2023-02-11T03:54:13.683Z,0.90
2023-02-11T03:56:49.923Z,1.00
2023-02-11T03:59:16.976Z,1.30
2023-02-11T04:01:44.023Z,1.20
2023-02-11T04:04:11.453Z,1.20
2023-02-11T04:06:38.658Z,1.20
2023-02-11T04:09:05.838Z,1.10
2023-02-11T04:11:32.857Z,1.10
2023-02-11T04:13:59.926Z,1.10
2023-02-11T04:16:27.179Z,1.20
2023-02-11T04:18:54.136Z,1.30
2023-02-11T04:21:21.038Z,1.20
2023-02-11T04:23:47.903Z,1.20
2023-02-11T04:26:14.911Z,1.20
2023-02-11T04:28:41.798Z,1.10
2023-02-11T04:31:10.697Z,1.10
2023-02-11T04:33:37.704Z,1.00
2023-02-11T04:36:04.780Z,1.00
2023-02-11T04:38:32.293Z,1.00
2023-02-11T04:41:00.536Z,1.10
2023-02-11T04:43:27.457Z,1.10
2023-02-11T04:45:58.758Z,1.10
2023-02-11T04:48:26.282Z,1.10
2023-02-11T04:50:53.331Z,1.20
2023-02-11T04:53:20.452Z,1.10
2023-02-11T04:55:50.912Z,1.10
2023-02-11T04:58:20.120Z,1.10
2023-02-11T05:00:47.399Z,1.20
2023-02-11T05:03:14.597Z,1.20
2023-02-11T05:05:42.662Z,1.20
2023-02-11T05:08:12.777Z,1.20
2023-02-11T05:10:39.789Z,1.20
2023-02-11T05:13:06.715Z,1.10
2023-02-11T05:15:33.639Z,1.10
2023-02-11T05:18:00.503Z,1.10
2023-02-11T05:20:27.429Z,1.20
2023-02-11T05:22:54.370Z,1.00
2023-02-11T05:25:21.385Z,1.00
2023-02-11T05:27:48.414Z,1.10
2023-02-11T05:30:15.345Z,1.00
2023-02-11T05:32:42.286Z,0.90
2023-02-11T05:35:09.549Z,0.90
2023-02-11T05:37:36.770Z,1.10
2023-02-11T05:40:04.972Z,1.00
2023-02-11T05:42:32.030Z,0.90
2023-02-11T05:44:58.916Z,1.10
2023-02-11T05:47:25.894Z,1.00
2023-02-11T05:49:55.908Z,1.10
2023-02-11T05:52:24.271Z,1.00
2023-02-11T05:54:51.565Z,1.00
2023-02-11T05:57:18.553Z,0.90
2023-02-11T05:59:45.528Z,0.90
2023-02-11T06:02:12.571Z,0.90
2023-02-11T06:04:39.530Z,0.70
2023-02-11T06:07:06.493Z,0.80
2023-02-11T06:09:33.413Z,0.80
2023-02-11T06:12:00.305Z,0.80
2023-02-11T06:14:27.385Z,0.80
2023-02-11T06:16:54.355Z,0.80
2023-02-11T06:19:21.320Z,0.90
2023-02-11T06:21:48.248Z,0.80
2023-02-11T06:24:17.416Z,0.80
2023-02-11T06:26:46.282Z,0.90
2023-02-11T06:29:13.941Z,0.80
2023-02-11T06:31:41.462Z,0.80
2023-02-11T06:34:10.372Z,0.90
2023-02-11T06:36:39.891Z,0.80
2023-02-11T06:39:08.205Z,0.90
2023-02-11T06:41:35.122Z,0.80
2023-02-11T06:44:02.279Z,0.80
2023-02-11T06:46:29.371Z,0.80
2023-02-11T06:48:56.543Z,1.00
2023-02-11T06:51:23.632Z,0.90
2023-02-11T06:53:50.591Z,0.90
2023-02-11T06:56:23.011Z,1.00
2023-02-11T06:58:56.338Z,1.00
2023-02-11T07:01:25.336Z,0.90
2023-02-11T07:03:53.592Z,1.00
2023-02-11T07:06:27.739Z,0.90
2023-02-11T07:08:56.223Z,0.90
2023-02-11T07:11:27.477Z,1.00
2023-02-11T07:14:00.803Z,0.90
2023-02-11T07:16:27.992Z,1.10
2023-02-11T07:18:55.018Z,1.10
2023-02-11T07:21:24.378Z,1.00
2023-02-11T07:23:52.247Z,1.10
2023-02-11T07:26:25.906Z,1.10
2023-02-11T07:28:53.952Z,1.10
2023-02-11T07:31:27.925Z,1.10
2023-02-11T07:33:59.818Z,1.20
2023-02-11T07:36:28.599Z,1.20
2023-02-11T07:38:55.650Z,1.30
2023-02-11T07:41:25.169Z,1.30
2023-02-11T07:43:54.057Z,1.30
2023-02-11T07:46:25.553Z,1.20
2023-02-11T07:48:53.383Z,1.20
2023-02-11T07:51:23.583Z,1.20
2023-02-11T07:53:50.861Z,1.30
2023-02-11T07:56:19.917Z,1.30
2023-02-11T07:58:47.157Z,1.30
2023-02-11T08:01:18.669Z,1.30
2023-02-11T08:03:45.777Z,1.30
2023-02-11T08:06:16.483Z,1.40
2023-02-11T08:08:44.490Z,1.50
2023-02-11T08:11:21.826Z,1.70
2023-02-11T08:13:49.360Z,1.70
2023-02-11T08:16:22.549Z,1.80
2023-02-11T08:18:51.054Z,2.00
2023-02-11T08:21:18.900Z,2.20
2023-02-11T08:23:46.916Z,2.20
2023-02-11T08:26:23.794Z,2.30
2023-02-11T08:28:54.259Z,2.40
2023-02-11T08:31:25.234Z,2.40
2023-02-11T08:33:54.619Z,2.40
2023-02-11T08:36:25.151Z,2.40
2023-02-11T08:38:57.159Z,2.40
2023-02-11T08:41:32.644Z,2.60
2023-02-11T08:43:59.784Z,2.40
2023-02-11T08:46:27.988Z,2.60
2023-02-11T08:48:55.852Z,2.70
2023-02-11T08:51:27.557Z,2.60
2023-02-11T08:53:56.282Z,2.70
2023-02-11T08:56:23.820Z,2.90
2023-02-11T08:58:51.904Z,3.00
2023-02-11T09:01:24.274Z,3.10
2023-02-11T09:03:51.950Z,3.20
2023-02-11T09:06:19.890Z,3.30
2023-02-11T09:08:49.906Z,3.30
2023-02-11T09:11:22.577Z,3.30
2023-02-11T09:13:50.972Z,3.50
2023-02-11T09:16:28.032Z,3.60
2023-02-11T09:18:58.264Z,3.70
2023-02-11T09:21:25.736Z,3.90
2023-02-11T09:23:53.384Z,4.00
2023-02-11T09:26:27.383Z,4.00
2023-02-11T09:28:54.679Z,4.10
2023-02-11T09:31:24.975Z,4.30
2023-02-11T09:33:56.912Z,4.60
2023-02-11T09:36:33.713Z,4.80
2023-02-11T09:39:02.296Z,4.90
2023-02-11T09:41:39.719Z,5.10
2023-02-11T09:44:18.521Z,5.30
2023-02-11T09:47:01.024Z,5.50
2023-02-11T09:49:51.914Z,5.20
2023-02-11T09:52:24.635Z,5.30
2023-02-11T09:55:01.254Z,5.40
2023-02-11T09:57:36.569Z,5.60
2023-02-11T10:00:24.304Z,5.60
2023-02-11T10:03:42.593Z,5.30
2023-02-11T10:06:37.002Z,5.70
2023-02-11T10:09:33.051Z,6.00
2023-02-11T10:12:15.042Z,6.00
2023-02-11T10:14:50.620Z,6.10
2023-02-11T10:17:20.241Z,6.00
2023-02-11T10:19:59.098Z,6.00
2023-02-11T10:22:36.871Z,6.10
2023-02-11T10:25:40.382Z,6.40
2023-02-11T10:28:24.653Z,6.30
2023-02-11T10:31:03.986Z,6.10
2023-02-11T10:34:05.721Z,6.10
2023-02-11T10:36:40.212Z,6.40
2023-02-11T10:39:14.209Z,6.50
2023-02-11T10:41:56.677Z,6.80
2023-02-11T10:44:44.072Z,6.70
2023-02-11T10:47:22.914Z,6.70
2023-02-11T10:49:50.094Z,6.70
2023-02-11T10:52:20.168Z,6.80
2023-02-11T10:55:05.090Z,6.90
2023-02-11T10:57:59.533Z,7.10
2023-02-11T11:00:41.522Z,7.30
2023-02-11T11:03:46.950Z,6.90
2023-02-11T11:06:14.014Z,7.00
2023-02-11T11:08:49.420Z,7.20
2023-02-11T11:11:22.986Z,7.40
2023-02-11T11:13:53.164Z,7.40
2023-02-11T11:16:27.300Z,7.40
2023-02-11T11:19:23.542Z,7.40
2023-02-11T11:21:56.064Z,7.40
2023-02-11T11:24:40.612Z,7.30
2023-02-11T11:27:21.846Z,7.30
2023-02-11T11:29:55.139Z,7.50
2023-02-11T11:32:32.492Z,7.60
2023-02-11T11:35:05.989Z,7.60
2023-02-11T11:37:39.025Z,7.60
2023-02-11T11:40:08.993Z,7.70
2023-02-11T11:42:39.189Z,7.90
2023-02-11T11:45:25.791Z,8.10
2023-02-11T11:48:46.892Z,8.00
2023-02-11T11:51:14.051Z,8.10
2023-02-11T11:54:12.681Z,8.20
2023-02-11T11:56:54.358Z,8.30
2023-02-11T11:59:22.566Z,8.20
2023-02-11T12:02:06.862Z,8.30
2023-02-11T12:05:10.584Z,8.40
2023-02-11T12:08:20.653Z,8.40
2023-02-11T12:11:05.806Z,8.30
2023-02-11T12:14:06.493Z,8.30
2023-02-11T12:17:03.573Z,8.40
2023-02-11T12:19:48.729Z,8.40
2023-02-11T12:22:44.392Z,8.50
2023-02-11T12:25:54.280Z,8.70
2023-02-11T12:28:53.897Z,8.60
2023-02-11T12:31:53.876Z,8.80
2023-02-11T12:34:58.378Z,8.90
2023-02-11T12:37:41.328Z,8.80
2023-02-11T12:40:21.854Z,8.90
2023-02-11T12:43:16.528Z,9.00
2023-02-11T12:46:24.329Z,9.10
2023-02-11T12:49:24.562Z,9.20
2023-02-11T12:52:22.695Z,9.40
2023-02-11T12:55:02.711Z,9.30
2023-02-11T12:57:33.558Z,9.50
2023-02-11T13:00:00.381Z,9.80
2023-02-11T13:02:34.298Z,9.80
2023-02-11T13:05:29.743Z,9.70
2023-02-11T13:08:42.941Z,9.70
2023-02-11T13:11:41.124Z,9.80
2023-02-11T13:14:32.703Z,10.00
2023-02-11T13:17:00.396Z,10.00
2023-02-11T13:19:52.938Z,10.10
2023-02-11T13:22:28.539Z,10.10
2023-02-11T13:25:31.356Z,9.90
2023-02-11T13:28:28.549Z,9.80
2023-02-11T13:31:03.459Z,9.80
2023-02-11T13:33:35.521Z,9.90
2023-02-11T13:36:04.613Z,10.00
2023-02-11T13:38:33.176Z,10.00
2023-02-11T13:41:26.470Z,10.00
2023-02-11T13:44:22.680Z,10.10
2023-02-11T13:47:02.192Z,10.30
2023-02-11T13:49:33.721Z,10.20
2023-02-11T13:52:02.691Z,10.10
2023-02-11T13:54:39.162Z,10.00
2023-02-11T13:57:26.341Z,10.10
2023-02-11T14:00:10.273Z,10.10
2023-02-11T14:02:56.643Z,10.00
2023-02-11T14:05:50.951Z,10.20
2023-02-11T14:08:44.494Z,10.20
2023-02-11T14:11:43.593Z,10.30
2023-02-11T14:14:27.255Z,10.30
2023-02-11T14:17:00.787Z,10.30
2023-02-11T14:19:45.904Z,10.10
2023-02-11T14:22:31.807Z,10.20
2023-02-11T14:25:05.288Z,10.40
2023-02-11T14:27:52.221Z,10.40
2023-02-11T14:30:44.323Z,10.40
2023-02-11T14:33:32.642Z,10.50
2023-02-11T14:36:28.385Z,10.30
2023-02-11T14:39:32.699Z,10.20
2023-02-11T14:42:02.864Z,10.10
2023-02-11T14:44:33.205Z,10.10
2023-02-11T14:47:00.584Z,10.00
2023-02-11T14:49:30.565Z,10.00
2023-02-11T14:52:25.922Z,10.00
2023-02-11T14:55:17.893Z,10.00
2023-02-11T14:57:45.746Z,9.70
2023-02-11T15:00:20.878Z,9.50
2023-02-11T15:02:48.791Z,9.30
2023-02-11T15:05:29.030Z,9.30
2023-02-11T15:08:02.922Z,9.20
2023-02-11T15:10:43.469Z,9.10
2023-02-11T15:13:20.182Z,9.30
2023-02-11T15:15:55.229Z,9.10
2023-02-11T15:18:33.591Z,9.10
2023-02-11T15:21:01.009Z,9.00
2023-02-11T15:23:30.044Z,9.10
2023-02-11T15:25:57.107Z,8.90
2023-02-11T15:28:34.260Z,8.70
2023-02-11T15:31:14.656Z,8.60
2023-02-11T15:33:41.819Z,8.60
2023-02-11T15:36:13.768Z,8.70
2023-02-11T15:38:41.039Z,8.60
2023-02-11T15:41:35.993Z,8.50
2023-02-11T15:44:02.888Z,8.40
2023-02-11T15:46:39.522Z,8.30
2023-02-11T15:49:08.513Z,8.20
2023-02-11T15:51:37.451Z,8.40
2023-02-11T15:54:16.738Z,8.30
2023-02-11T15:56:47.519Z,8.10
2023-02-11T15:59:23.876Z,8.10
2023-02-11T16:01:50.886Z,7.90
2023-02-11T16:04:21.990Z,8.10
2023-02-11T16:06:51.072Z,8.10
2023-02-11T16:09:30.558Z,8.00
2023-02-11T16:12:04.817Z,8.00
2023-02-11T16:14:42.218Z,7.80
2023-02-11T16:17:22.337Z,7.90
2023-02-11T16:19:51.946Z,7.90
2023-02-11T16:22:30.101Z,8.00
2023-02-11T16:25:00.576Z,7.90
2023-02-11T16:27:38.181Z,7.80
2023-02-11T16:30:07.192Z,7.60
2023-02-11T16:32:35.032Z,7.50
2023-02-11T16:35:02.143Z,7.50
2023-02-11T16:37:29.061Z,7.50
2023-02-11T16:39:58.030Z,7.50
2023-02-11T16:42:25.249Z,7.50
2023-02-11T16:44:52.322Z,7.60
2023-02-11T16:47:27.900Z,7.50
2023-02-11T16:49:56.727Z,7.40
2023-02-11T16:52:24.459Z,7.40
2023-02-11T16:54:52.085Z,7.50
2023-02-11T16:57:26.933Z,7.40
2023-02-11T16:59:55.094Z,7.50
2023-02-11T17:02:36.289Z,7.40
2023-02-11T17:05:11.971Z,7.40
2023-02-11T17:07:39.109Z,7.50
2023-02-11T17:10:15.121Z,7.50
2023-02-11T17:12:42.026Z,7.60
2023-02-11T17:15:09.754Z,7.60
2023-02-11T17:17:36.782Z,7.60
2023-02-11T17:20:04.120Z,7.70
2023-02-11T17:22:31.028Z,8.00
2023-02-11T17:24:58.765Z,8.00
2023-02-11T17:27:25.789Z,7.80
2023-02-11T17:29:52.843Z,7.70
2023-02-11T17:32:19.884Z,7.60
2023-02-11T17:34:46.958Z,7.50
2023-02-11T17:37:13.956Z,7.50
2023-02-11T17:39:41.122Z,7.30
2023-02-11T17:42:08.692Z,7.50
2023-02-11T17:44:35.728Z,7.30
2023-02-11T17:47:02.764Z,7.10
2023-02-11T17:49:30.213Z,7.00
2023-02-11T17:51:57.162Z,6.80
2023-02-11T17:54:25.004Z,6.80
2023-02-11T17:56:55.169Z,6.80
2023-02-11T17:59:25.207Z,6.80
2023-02-11T18:01:52.154Z,6.90
2023-02-11T18:04:20.305Z,7.10
2023-02-11T18:06:47.642Z,7.20
2023-02-11T18:09:14.756Z,7.20
2023-02-11T18:11:42.101Z,7.10
2023-02-11T18:14:10.775Z,7.10
2023-02-11T18:16:39.793Z,7.10
2023-02-11T18:19:07.672Z,6.80
2023-02-11T18:21:35.315Z,6.90
2023-02-11T18:24:06.396Z,6.80
2023-02-11T18:26:34.465Z,6.90
2023-02-11T18:29:02.006Z,6.80
2023-02-11T18:31:29.567Z,6.80
2023-02-11T18:33:56.482Z,6.70
2023-02-11T18:36:23.802Z,6.80
2023-02-11T18:38:52.641Z,6.70
2023-02-11T18:41:20.531Z,6.70
2023-02-11T18:43:47.467Z,6.80
2023-02-11T18:46:16.052Z,7.20
2023-02-11T18:48:44.817Z,7.20
2023-02-11T18:51:15.836Z,7.20
2023-02-11T18:53:43.348Z,7.30
2023-02-11T18:56:15.252Z,7.30
2023-02-11T18:58:42.412Z,7.30
2023-02-11T19:01:25.945Z,7.30
2023-02-11T19:03:54.832Z,7.20
2023-02-11T19:06:28.595Z,7.20
2023-02-11T19:08:59.957Z,7.20
2023-02-11T19:11:47.226Z,7.00
2023-02-11T19:14:25.718Z,7.00
2023-02-11T19:16:56.755Z,6.90
2023-02-11T19:19:25.739Z,7.30
2023-02-11T19:21:52.835Z,7.20
2023-02-11T19:24:20.288Z,7.20
2023-02-11T19:26:49.569Z,7.30
2023-02-11T19:29:17.281Z,7.40
2023-02-11T19:31:44.988Z,7.50
2023-02-11T19:34:14.163Z,7.40
2023-02-11T19:36:41.564Z,7.30
2023-02-11T19:39:09.246Z,7.20
2023-02-11T19:41:37.033Z,7.20
2023-02-11T19:44:05.990Z,7.10
2023-02-11T19:46:36.963Z,7.10
2023-02-11T19:49:05.367Z,7.10
2023-02-11T19:51:33.905Z,7.10
2023-02-11T19:54:02.328Z,7.00
2023-02-11T19:56:29.342Z,6.80
2023-02-11T19:58:56.779Z,6.50
2023-02-11T20:01:26.121Z,6.30
2023-02-11T20:03:57.038Z,6.20
2023-02-11T20:06:30.538Z,6.10
2023-02-11T20:09:04.227Z,6.00
2023-02-11T20:11:31.902Z,5.80
2023-02-11T20:14:00.192Z,5.70
2023-02-11T20:16:45.076Z,5.70
2023-02-11T20:19:21.447Z,5.60
2023-02-11T20:21:52.468Z,5.60
2023-02-11T20:24:20.535Z,5.60
2023-02-11T20:26:48.781Z,5.60
2023-02-11T20:29:18.990Z,5.80
2023-02-11T20:31:46.368Z,5.80
2023-02-11T20:34:13.542Z,5.80
2023-02-11T20:36:40.751Z,5.90
2023-02-11T20:39:08.356Z,5.90
2023-02-11T20:41:39.909Z,5.90
2023-02-11T20:44:09.925Z,5.90
2023-02-11T20:46:40.315Z,6.00
2023-02-11T20:49:10.322Z,5.80
2023-02-11T20:51:37.576Z,5.90
2023-02-11T20:54:06.227Z,5.90
2023-02-11T20:56:36.677Z,6.00
2023-02-11T20:59:05.769Z,5.90
2023-02-11T21:01:43.208Z,5.90
2023-02-11T21:04:20.279Z,5.80
2023-02-11T21:06:55.313Z,5.80
2023-02-11T21:09:26.441Z,6.00
2023-02-11T21:11:54.785Z,6.00
2023-02-11T21:14:24.814Z,5.90
2023-02-11T21:16:52.637Z,5.90
2023-02-11T21:19:20.316Z,5.80
2023-02-11T21:21:47.768Z,5.90
2023-02-11T21:24:17.300Z,5.90
2023-02-11T21:26:44.254Z,5.80
2023-02-11T21:29:11.891Z,5.90
2023-02-11T21:31:39.609Z,5.80
2023-02-11T21:34:07.234Z,5.80
2023-02-11T21:36:34.260Z,5.80
2023-02-11T21:39:01.926Z,5.70
2023-02-11T21:41:29.119Z,5.80
2023-02-11T21:43:56.477Z,5.80
2023-02-11T21:46:23.749Z,5.60
2023-02-11T21:48:50.981Z,5.50
2023-02-11T21:51:23.743Z,5.60
2023-02-11T21:54:02.291Z,5.70
2023-02-11T21:56:31.368Z,5.60
2023-02-11T21:59:00.019Z,5.60
2023-02-11T22:01:33.351Z,5.60
2023-02-11T22:04:00.562Z,5.70
2023-02-11T22:06:31.093Z,5.80
2023-02-11T22:09:01.816Z,5.80
2023-02-11T22:11:28.781Z,5.80
2023-02-11T22:13:57.755Z,6.00
2023-02-11T22:16:29.812Z,6.10
2023-02-11T22:18:58.922Z,5.90
2023-02-11T22:21:27.700Z,5.80
2023-02-11T22:23:55.957Z,6.00
2023-02-11T22:26:26.326Z,5.70
2023-02-11T22:28:54.863Z,5.60
2023-02-11T22:31:29.048Z,5.50
2023-02-11T22:33:57.297Z,5.40
2023-02-11T22:36:30.766Z,5.30
2023-02-11T22:39:02.097Z,5.30
2023-02-11T22:41:29.598Z,5.30
2023-02-11T22:43:56.706Z,5.50
2023-02-11T22:46:23.702Z,5.50
2023-02-11T22:48:51.264Z,5.50
2023-02-11T22:51:25.547Z,5.20
2023-02-11T22:53:56.612Z,5.20
2023-02-11T22:56:24.625Z,5.40
2023-02-11T22:58:53.194Z,5.40
2023-02-11T23:01:20.768Z,5.30
2023-02-11T23:03:47.715Z,5.40
2023-02-11T23:06:14.827Z,5.30
2023-02-11T23:08:45.398Z,5.20
2023-02-11T23:11:17.118Z,5.10
2023-02-11T23:13:45.534Z,5.00
2023-02-11T23:16:17.371Z,4.90
2023-02-11T23:18:46.163Z,5.00
2023-02-11T23:21:24.215Z,5.10
2023-02-11T23:24:13.234Z,5.00
2023-02-11T23:26:42.206Z,5.10
2023-02-11T23:29:10.789Z,5.00
2023-02-11T23:31:40.729Z,4.90
2023-02-11T23:34:08.278Z,5.10
2023-02-11T23:36:35.877Z,5.10
2023-02-11T23:39:03.430Z,5.10
2023-02-11T23:41:30.399Z,5.10
2023-02-11T23:43:58.097Z,5.10
2023-02-11T23:46:27.127Z,5.00
2023-02-11T23:48:54.346Z,5.10
2023-02-11T23:51:21.704Z,5.30
2023-02-11T23:53:49.654Z,5.20
2023-02-11T23:56:20.974Z,5.10
2023-02-11T23:58:50.156Z,5.10
